Tropical Cyclones
[Index]
Main Index Home Page Stock Weather Photos Extreme Storms Discussion Storm News and Storm Chasing Reports Tropical Cyclones / Hurricanes / Typhoons Weather Data and Links Wild Fires / Bushfires Weather Observation Techniques Weather Picture Catalogue Tornado Pictures and Reports Stock Video Footage and DVDs for sale
Season 2007-2008 Tropical Cyclone CELINA Track Map
Season 2007-2008 Summaries: [BoM-AU] [JTWC-AU] [JTWC-SIO] [JTWC-SPAC] [JTWC-SH]
<<- Previous TC | JTWC 2007-2008 Season | Next TC ->>

click for intensity scale information  Lat/long Grid: Show Hide

 Date Labels: Show Hide

Joint Typhoon Warning Centre Cyclone Data

Name: CELINA

12 Dec 2007 12:00 UTC to 22 Dec 2007 18:00 UTC

    date/time    lat    long     hPa   cat  kts
2007-12-12 12   13.4    70.3    1004         25          
2007-12-12 18   13.5    70.2    1000         30          
2007-12-13 00   13.6    70.1    1000         30          
2007-12-13 06   13.7    70.0     996         35          
2007-12-13 12   13.8    69.9     996         35          
2007-12-13 18   13.9    69.7     996         35          
2007-12-14 00   14.0    69.5     996         35          
2007-12-14 06   14.2    69.5    1000         30          
2007-12-14 12   14.4    69.5    1000         30          
2007-12-14 18   14.5    69.3    1000         30          
2007-12-15 00   14.6    68.7     996         35          
2007-12-15 06   15.1    68.1     996         35          
2007-12-15 12   15.6    67.5     996         35          
2007-12-15 18   15.9    66.9     996         35          
2007-12-16 00   16.2    66.2     996         35          
2007-12-16 06   16.5    65.4     996         35          
2007-12-16 12   16.9    64.7     996         35          
2007-12-16 18   17.4    63.9     996         35          
2007-12-17 00   18.5    63.1     996         35          
2007-12-17 06   19.4    62.1     996         35          
2007-12-17 12   20.1    61.1     993    1    40          
2007-12-17 18   20.5    60.7     993    1    40          
2007-12-18 00   20.8    60.3     993    1    40          
2007-12-18 06   21.1    60.0     993    1    40          
2007-12-18 12   21.4    59.7     996         35          
2007-12-18 18   21.7    59.4     996         35          
2007-12-19 00   22.0    59.1    1000         30          
2007-12-19 06   22.2    58.5    1000         30          
2007-12-19 12   22.4    57.8    1000         30          
2007-12-19 18   22.6    57.2    1000         30          
2007-12-20 00   22.6    56.6    1000         30          
2007-12-20 06   22.1    55.5    1000         30          
2007-12-20 12   21.6    54.8    1000         30          
2007-12-20 18   21.2    54.1    1000         30          
2007-12-21 00   21.2    53.4    1000         30          
2007-12-21 06   21.0    52.6    1000         30          
2007-12-21 12   21.0    51.9    1004         25          
2007-12-21 18   20.8    51.2    1004         25          
2007-12-22 00   20.6    50.7    1004         25          
2007-12-22 06   20.5    50.5    1004         25          
2007-12-22 12   20.4    50.4    1004         25          
2007-12-22 18   20.3    50.2    1004         25          
Winds are 1-min average.

Tropical cyclone tracks developed by Michael Bath using data from the Joint Typhoon Warning Centre Best Tracks and Google Maps.


[Australian Severe Weather index] [Copyright Notice] [Email Contacts] [Search This Site] [Privacy Policy]
Document: tropical_cyclone_celina.htm Updated: 28 June 2017